createdAt,value
2023-01-08T00:09:10.405Z,10
2023-01-08T00:24:20.367Z,9.9
2023-01-08T00:39:29.975Z,9.9
2023-01-08T00:54:40.339Z,9.9
2023-01-08T01:09:50.278Z,10
2023-01-08T01:25:00.424Z,10
2023-01-08T01:40:10.458Z,10
2023-01-08T01:55:20.660Z,10
2023-01-08T02:10:30.709Z,10
2023-01-08T02:25:40.845Z,10
2023-01-08T02:40:51.214Z,10
2023-01-08T02:56:01.027Z,10.1
2023-01-08T03:11:11.288Z,10.1
2023-01-08T03:26:21.479Z,10.2
2023-01-08T03:41:31.726Z,10.2
2023-01-08T03:56:42.039Z,10.2
2023-01-08T04:11:52.965Z,10.2
2023-01-08T04:27:03.027Z,10.2
2023-01-08T04:42:13.284Z,10.2
2023-01-08T04:57:24.401Z,10.2
2023-01-08T05:12:34.674Z,10.2
2023-01-08T05:27:47.844Z,10.2
2023-01-08T05:42:58.213Z,10.1
2023-01-08T05:58:09.307Z,10.1
2023-01-08T06:13:19.868Z,10
2023-01-08T06:28:31.150Z,10
2023-01-08T06:43:41.731Z,10
2023-01-08T06:58:52.444Z,10
2023-01-08T07:14:05.949Z,9.9
2023-01-08T07:29:18.924Z,9.9
2023-01-08T07:44:29.251Z,9.8
2023-01-08T07:59:39.291Z,9.8
2023-01-08T08:14:49.482Z,9.9
2023-01-08T08:29:59.317Z,9.9
2023-01-08T08:45:09.761Z,9.9
2023-01-08T09:00:19.411Z,10
2023-01-08T09:15:29.620Z,10
2023-01-08T09:30:39.316Z,10
2023-01-08T09:45:49.605Z,10.1
2023-01-08T10:00:59.798Z,10.1
2023-01-08T10:16:10.152Z,10.3
2023-01-08T10:31:20.707Z,10.4
2023-01-08T10:46:30.969Z,10.4
2023-01-08T11:01:40.654Z,10.4
2023-01-08T11:16:50.733Z,10.6
2023-01-08T11:32:00.649Z,10.6
2023-01-08T11:47:10.622Z,10.8
2023-01-08T12:02:20.605Z,11
2023-01-08T12:17:30.609Z,11.3
2023-01-08T12:32:40.030Z,11.4
2023-01-08T12:47:49.482Z,11.4
2023-01-08T13:02:59.200Z,11.2
2023-01-08T13:18:09.392Z,11.3
2023-01-08T13:33:19.336Z,11.3
2023-01-08T13:48:29.055Z,11.1
2023-01-08T14:03:38.668Z,11.1
2023-01-08T14:18:48.288Z,11.1
2023-01-08T14:33:57.959Z,11.1
2023-01-08T14:49:10.673Z,10.9
2023-01-08T15:04:19.835Z,10.8
2023-01-08T15:19:29.052Z,10.7
2023-01-08T15:34:38.881Z,10.6
2023-01-08T15:49:48.426Z,10.4
2023-01-08T16:04:57.757Z,10.3
2023-01-08T16:20:07.094Z,10.1
2023-01-08T16:35:19.235Z,10.1
2023-01-08T16:50:29.069Z,10.1
2023-01-08T17:05:37.987Z,9
2023-01-08T17:20:47.284Z,8.7
2023-01-08T17:35:56.756Z,8.6
2023-01-08T17:51:09.349Z,8.6
2023-01-08T18:06:19.311Z,8.6
2023-01-08T18:21:28.908Z,8.6
2023-01-08T18:36:38.407Z,8.5
2023-01-08T18:51:48.021Z,8.5
2023-01-08T19:06:57.464Z,8.6
2023-01-08T19:22:06.840Z,8.5
2023-01-08T19:37:19.114Z,8.5
2023-01-08T19:52:28.429Z,8.5
2023-01-08T20:07:38.102Z,8.4
2023-01-08T20:22:48.242Z,8.3
2023-01-08T20:37:57.931Z,8.3
2023-01-08T20:53:07.554Z,8.2
2023-01-08T21:08:20.094Z,8.2
2023-01-08T21:23:30.665Z,8.1
2023-01-08T21:38:39.784Z,8.1
2023-01-08T21:53:49.175Z,8.1
2023-01-08T22:08:59.111Z,8.1
2023-01-08T22:24:08.907Z,8.2
2023-01-08T22:39:19.279Z,8.2
2023-01-08T22:54:28.443Z,8.1
2023-01-08T23:09:38.185Z,8.2
2023-01-08T23:24:47.925Z,8.2
2023-01-08T23:39:57.475Z,8.2
2023-01-08T23:55:07.148Z,8.3
